createdAt,value
2024-01-07T00:02:05.760Z,5.10
2024-01-07T00:04:33.355Z,5.30
2024-01-07T00:07:00.922Z,5.20
2024-01-07T00:09:28.492Z,5.00
2024-01-07T00:11:56.087Z,4.90
2024-01-07T00:14:23.646Z,4.80
2024-01-07T00:16:51.222Z,4.80
2024-01-07T00:19:19.688Z,4.70
2024-01-07T00:21:47.951Z,4.70
2024-01-07T00:24:15.505Z,4.70
2024-01-07T00:26:43.126Z,4.70
2024-01-07T00:29:10.710Z,4.70
2024-01-07T00:31:38.373Z,4.60
2024-01-07T00:34:06.003Z,4.60
2024-01-07T00:36:33.492Z,4.60
2024-01-07T00:39:01.043Z,4.60
2024-01-07T00:41:28.626Z,4.60
2024-01-07T00:43:56.235Z,4.60
2024-01-07T00:46:23.777Z,4.60
2024-01-07T00:48:51.397Z,4.60
2024-01-07T00:51:18.951Z,4.90
2024-01-07T00:53:46.515Z,4.80
2024-01-07T00:56:14.148Z,4.80
2024-01-07T00:58:41.753Z,4.70
2024-01-07T01:01:09.347Z,4.70
2024-01-07T01:03:36.978Z,4.60
2024-01-07T01:06:04.588Z,4.60
2024-01-07T01:08:32.854Z,5.20
2024-01-07T01:11:00.407Z,5.20
2024-01-07T01:13:28.759Z,4.90
2024-01-07T01:15:56.399Z,4.90
2024-01-07T01:18:24.055Z,4.80
2024-01-07T01:20:52.243Z,5.00
2024-01-07T01:23:19.830Z,5.00
2024-01-07T01:25:47.422Z,4.90
2024-01-07T01:28:15.785Z,5.10
2024-01-07T01:30:43.379Z,5.10
2024-01-07T01:33:11.012Z,5.00
2024-01-07T01:35:38.478Z,4.90
2024-01-07T01:38:06.816Z,4.80
2024-01-07T01:40:34.429Z,4.70
2024-01-07T01:43:02.037Z,4.70
2024-01-07T01:45:29.614Z,4.70
2024-01-07T01:47:57.222Z,4.70
2024-01-07T01:50:24.752Z,4.60
2024-01-07T01:52:53.085Z,4.90
2024-01-07T01:55:20.718Z,4.90
2024-01-07T01:57:48.363Z,4.80
2024-01-07T02:00:15.883Z,4.80
2024-01-07T02:02:43.511Z,4.70
2024-01-07T02:05:11.124Z,4.80
2024-01-07T02:07:38.627Z,4.70
2024-01-07T02:10:06.278Z,4.70
2024-01-07T02:12:34.606Z,4.70
2024-01-07T02:15:02.127Z,4.70
2024-01-07T02:17:29.772Z,4.70
2024-01-07T02:19:57.564Z,4.70
2024-01-07T02:22:25.670Z,4.70
2024-01-07T02:24:53.322Z,4.70
2024-01-07T02:27:21.586Z,4.70
2024-01-07T02:29:49.183Z,4.70
2024-01-07T02:32:16.763Z,4.70
2024-01-07T02:34:45.237Z,4.60
2024-01-07T02:37:12.724Z,4.60
2024-01-07T02:39:40.333Z,4.60
2024-01-07T02:42:07.926Z,4.60
2024-01-07T02:44:36.257Z,4.90
2024-01-07T02:47:03.860Z,4.90
2024-01-07T02:49:32.316Z,4.80
2024-01-07T02:51:59.837Z,4.80
2024-01-07T02:54:27.448Z,4.80
2024-01-07T02:56:54.973Z,4.70
2024-01-07T02:59:22.529Z,4.70
2024-01-07T03:01:50.299Z,4.60
2024-01-07T03:04:18.501Z,4.60
2024-01-07T03:06:46.142Z,4.60
2024-01-07T03:09:13.699Z,4.50
2024-01-07T03:11:43.941Z,4.50
2024-01-07T03:14:11.505Z,4.50
2024-01-07T03:16:39.110Z,4.40
2024-01-07T03:19:06.813Z,4.40
2024-01-07T03:21:34.372Z,4.40
2024-01-07T03:24:01.907Z,4.50
2024-01-07T03:26:29.439Z,4.40
2024-01-07T03:28:57.774Z,4.40
2024-01-07T03:31:25.521Z,4.40
2024-01-07T03:33:53.847Z,4.70
2024-01-07T03:36:21.261Z,4.70
2024-01-07T03:38:48.833Z,4.70
2024-01-07T03:41:19.342Z,4.60
2024-01-07T03:43:49.635Z,4.50
2024-01-07T03:46:17.145Z,4.40
2024-01-07T03:48:44.963Z,4.40
2024-01-07T03:51:12.271Z,4.40
2024-01-07T03:53:39.880Z,4.30
2024-01-07T03:56:08.184Z,4.60
2024-01-07T03:58:35.789Z,4.60
2024-01-07T04:01:03.465Z,4.60
2024-01-07T04:03:31.769Z,4.40
2024-01-07T04:05:59.305Z,4.40
2024-01-07T04:08:26.861Z,4.40
2024-01-07T04:10:55.203Z,4.40
2024-01-07T04:13:22.763Z,4.30
2024-01-07T04:15:50.410Z,4.70
2024-01-07T04:18:18.049Z,4.60
2024-01-07T04:20:45.556Z,4.50
2024-01-07T04:23:13.133Z,4.40
2024-01-07T04:25:40.689Z,4.40
2024-01-07T04:28:08.377Z,4.30
2024-01-07T04:30:38.624Z,4.30
2024-01-07T04:33:06.146Z,4.60
2024-01-07T04:35:33.716Z,4.50
2024-01-07T04:38:01.295Z,4.50
2024-01-07T04:40:28.867Z,4.50
2024-01-07T04:42:56.466Z,4.80
2024-01-07T04:45:24.037Z,4.70
2024-01-07T04:47:51.668Z,4.50
2024-01-07T04:50:19.956Z,4.50
2024-01-07T04:52:47.580Z,4.40
2024-01-07T04:55:15.235Z,4.40
2024-01-07T04:57:42.781Z,4.30
2024-01-07T05:00:10.417Z,4.30
2024-01-07T05:02:39.193Z,4.30
2024-01-07T05:05:06.766Z,4.20
2024-01-07T05:07:34.425Z,4.20
2024-01-07T05:10:01.945Z,4.20
2024-01-07T05:12:30.270Z,4.20
2024-01-07T05:14:57.851Z,4.10
2024-01-07T05:17:25.402Z,4.10
2024-01-07T05:19:53.121Z,4.20
2024-01-07T05:22:20.585Z,4.20
2024-01-07T05:24:48.201Z,4.20
2024-01-07T05:27:15.715Z,4.20
2024-01-07T05:29:43.310Z,4.10
2024-01-07T05:32:10.885Z,4.10
2024-01-07T05:34:39.239Z,4.10
2024-01-07T05:37:06.855Z,4.10
2024-01-07T05:39:34.433Z,4.10
2024-01-07T05:42:02.725Z,4.10
2024-01-07T05:44:30.471Z,4.10
2024-01-07T05:46:57.902Z,4.10
2024-01-07T05:49:25.699Z,4.10
2024-01-07T05:51:53.151Z,4.10
2024-01-07T05:54:20.672Z,4.10
2024-01-07T05:56:48.234Z,4.20
2024-01-07T05:59:15.840Z,4.20
2024-01-07T06:01:43.434Z,4.20
2024-01-07T06:04:11.158Z,4.20
2024-01-07T06:06:39.554Z,4.20
2024-01-07T06:09:06.937Z,4.20
2024-01-07T06:11:34.487Z,4.20
2024-01-07T06:14:02.145Z,4.20
2024-01-07T06:16:29.654Z,4.20
2024-01-07T06:18:57.332Z,4.20
2024-01-07T06:21:25.612Z,4.30
2024-01-07T06:23:53.128Z,4.30
2024-01-07T06:26:21.461Z,4.30
2024-01-07T06:28:49.072Z,4.30
2024-01-07T06:31:17.562Z,4.30
2024-01-07T06:33:45.083Z,4.30
2024-01-07T06:36:12.591Z,4.70
2024-01-07T06:38:40.162Z,4.60
2024-01-07T06:41:07.752Z,4.60
2024-01-07T06:43:35.356Z,4.50
2024-01-07T06:46:03.710Z,4.50
2024-01-07T06:48:31.308Z,4.50
2024-01-07T06:50:58.825Z,4.40
2024-01-07T06:53:26.412Z,4.40
2024-01-07T06:55:54.737Z,4.70
2024-01-07T06:58:22.317Z,4.60
2024-01-07T07:00:49.950Z,4.60
2024-01-07T07:03:17.499Z,4.50
2024-01-07T07:05:45.133Z,4.80
2024-01-07T07:08:12.635Z,4.70
2024-01-07T07:10:40.202Z,4.60
2024-01-07T07:13:07.957Z,4.50
2024-01-07T07:15:36.171Z,4.50
2024-01-07T07:18:03.783Z,4.40
2024-01-07T07:20:32.098Z,4.70
2024-01-07T07:22:59.658Z,4.70
2024-01-07T07:25:27.273Z,4.60
2024-01-07T07:27:54.890Z,4.90
2024-01-07T07:30:22.420Z,5.10
2024-01-07T07:32:50.073Z,5.00
2024-01-07T07:35:18.334Z,4.70
2024-01-07T07:37:45.903Z,4.70
2024-01-07T07:40:13.609Z,4.70
2024-01-07T07:42:41.170Z,4.60
2024-01-07T07:45:08.687Z,4.50
2024-01-07T07:47:36.307Z,4.50
2024-01-07T07:50:04.104Z,4.50
2024-01-07T07:52:32.206Z,4.40
2024-01-07T07:54:59.810Z,4.40
2024-01-07T07:57:27.404Z,4.40
2024-01-07T07:59:54.941Z,4.40
2024-01-07T08:02:23.283Z,4.70
2024-01-07T08:04:50.887Z,4.60
2024-01-07T08:07:18.460Z,4.60
2024-01-07T08:09:46.124Z,4.50
2024-01-07T08:12:13.611Z,4.40
2024-01-07T08:14:44.026Z,4.40
2024-01-07T08:17:11.578Z,4.40
2024-01-07T08:19:39.286Z,4.30
2024-01-07T08:22:06.820Z,4.20
2024-01-07T08:24:34.353Z,4.20
2024-01-07T08:27:01.903Z,4.20
2024-01-07T08:29:30.238Z,4.50
2024-01-07T08:31:57.868Z,4.50
2024-01-07T08:34:26.369Z,4.40
2024-01-07T08:36:53.853Z,4.40
2024-01-07T08:39:21.339Z,4.30
2024-01-07T08:41:48.977Z,4.30
2024-01-07T08:44:16.547Z,4.20
2024-01-07T08:46:44.094Z,4.20
2024-01-07T08:49:11.828Z,4.50
2024-01-07T08:51:39.294Z,4.90
2024-01-07T08:54:06.839Z,5.10
2024-01-07T08:56:34.450Z,5.00
2024-01-07T08:59:02.783Z,4.80
2024-01-07T09:01:30.485Z,4.80
2024-01-07T09:03:58.037Z,4.70
2024-01-07T09:06:26.295Z,4.60
2024-01-07T09:08:53.866Z,4.60
2024-01-07T09:11:21.439Z,4.50
2024-01-07T09:13:49.012Z,4.50
2024-01-07T09:16:17.428Z,5.00
2024-01-07T09:18:47.742Z,5.00
2024-01-07T09:21:15.156Z,4.90
2024-01-07T09:23:42.708Z,4.70
2024-01-07T09:26:10.352Z,4.60
2024-01-07T09:28:37.920Z,4.60
2024-01-07T09:31:05.712Z,4.60
2024-01-07T09:33:33.248Z,4.60
2024-01-07T09:36:06.589Z,4.60
2024-01-07T09:38:28.236Z,4.80
2024-01-07T09:40:55.838Z,4.80
2024-01-07T09:43:24.843Z,5.00
2024-01-07T09:45:51.000Z,4.90
2024-01-07T09:48:18.643Z,5.10
2024-01-07T09:50:47.142Z,5.00
2024-01-07T09:53:13.733Z,5.20
2024-01-07T09:55:59.883Z,5.10
2024-01-07T09:58:28.239Z,4.80
2024-01-07T10:00:56.628Z,4.70
2024-01-07T10:03:24.160Z,4.70
2024-01-07T10:05:51.764Z,4.60
2024-01-07T10:08:19.298Z,4.60
2024-01-07T10:10:47.659Z,4.50
2024-01-07T10:13:15.289Z,4.50
2024-01-07T10:15:42.868Z,4.50
2024-01-07T10:18:10.498Z,4.80
2024-01-07T10:20:39.734Z,4.70
2024-01-07T10:23:05.504Z,4.70
2024-01-07T10:25:33.106Z,4.60
2024-01-07T10:28:00.703Z,4.60
2024-01-07T10:30:28.238Z,4.60
2024-01-07T10:33:01.756Z,4.70
2024-01-07T10:35:35.273Z,4.60
2024-01-07T10:38:03.606Z,4.60
2024-01-07T10:40:31.209Z,4.60
2024-01-07T10:42:59.581Z,4.60
2024-01-07T10:45:27.123Z,4.60
2024-01-07T10:47:54.804Z,4.60
2024-01-07T10:50:23.080Z,4.90
2024-01-07T10:52:51.466Z,5.00
2024-01-07T10:55:19.153Z,4.90
2024-01-07T10:57:49.427Z,4.90
2024-01-07T11:00:19.664Z,5.00
2024-01-07T11:02:47.141Z,4.90
2024-01-07T11:05:17.745Z,4.90
2024-01-07T11:07:48.904Z,4.80
2024-01-07T11:10:22.070Z,4.90
2024-01-07T11:12:55.409Z,4.80
2024-01-07T11:15:53.607Z,4.80
2024-01-07T11:18:21.274Z,4.80
2024-01-07T11:20:48.754Z,4.80
2024-01-07T11:23:34.689Z,4.80
2024-01-07T11:26:03.023Z,4.80
2024-01-07T11:28:45.928Z,4.80
2024-01-07T11:31:13.703Z,4.80
2024-01-07T11:33:41.198Z,5.20
2024-01-07T11:36:08.728Z,5.20
2024-01-07T11:38:36.330Z,5.10
2024-01-07T11:41:03.854Z,5.00
2024-01-07T11:43:31.456Z,5.00
2024-01-07T11:45:59.068Z,5.00
2024-01-07T11:48:26.788Z,5.30
2024-01-07T11:50:56.563Z,5.10
2024-01-07T11:53:22.567Z,5.10
2024-01-07T11:55:50.193Z,5.10
2024-01-07T11:58:17.767Z,5.10
2024-01-07T12:00:45.383Z,5.10
2024-01-07T12:03:12.960Z,5.00
2024-01-07T12:05:43.549Z,5.00
2024-01-07T12:08:08.110Z,4.90
2024-01-07T12:10:35.658Z,5.20
2024-01-07T12:13:03.258Z,5.20
2024-01-07T12:15:31.751Z,5.10
2024-01-07T12:17:59.439Z,5.00
2024-01-07T12:20:26.897Z,4.90
2024-01-07T12:22:54.456Z,4.90
2024-01-07T12:25:22.824Z,4.70
2024-01-07T12:27:50.415Z,4.70
2024-01-07T12:30:18.008Z,4.70
2024-01-07T12:32:45.558Z,4.60
2024-01-07T12:35:13.212Z,4.60
2024-01-07T12:37:40.665Z,4.60
2024-01-07T12:40:08.496Z,4.60
2024-01-07T12:42:36.102Z,4.50
2024-01-07T12:45:03.638Z,4.50
2024-01-07T12:47:31.740Z,4.50
2024-01-07T12:50:00.192Z,4.80
2024-01-07T12:52:27.762Z,4.80
2024-01-07T12:54:55.332Z,4.70
2024-01-07T12:57:24.894Z,4.70
2024-01-07T12:59:50.426Z,4.70
2024-01-07T13:02:18.840Z,5.00
2024-01-07T13:04:46.397Z,5.00
2024-01-07T13:07:14.115Z,4.90
2024-01-07T13:09:41.520Z,4.90
2024-01-07T13:12:09.132Z,4.80
2024-01-07T13:14:36.717Z,4.80
2024-01-07T13:17:05.113Z,4.80
2024-01-07T13:19:32.784Z,4.80
2024-01-07T13:22:00.345Z,4.80
2024-01-07T13:24:28.657Z,4.80
2024-01-07T13:26:56.304Z,4.80
2024-01-07T13:29:23.869Z,4.80
2024-01-07T13:31:51.523Z,4.80
2024-01-07T13:34:19.217Z,4.70
2024-01-07T13:36:46.691Z,4.70
2024-01-07T13:39:14.228Z,4.70
2024-01-07T13:41:41.800Z,4.60
2024-01-07T13:44:09.407Z,4.60
2024-01-07T13:46:36.992Z,4.60
2024-01-07T13:49:04.730Z,4.80
2024-01-07T13:51:32.223Z,4.80
2024-01-07T13:54:00.496Z,4.90
2024-01-07T13:56:28.156Z,4.90
2024-01-07T13:58:55.665Z,4.80
2024-01-07T14:01:24.069Z,4.60
2024-01-07T14:03:51.609Z,4.60
2024-01-07T14:06:19.142Z,4.50
2024-01-07T14:08:46.716Z,4.40
2024-01-07T14:11:14.317Z,4.40
2024-01-07T14:13:41.892Z,4.30
2024-01-07T14:16:09.523Z,4.30
2024-01-07T14:18:37.191Z,4.30
2024-01-07T14:21:04.719Z,4.20
2024-01-07T14:23:32.240Z,4.50
2024-01-07T14:25:59.819Z,4.40
2024-01-07T14:28:27.402Z,4.30
2024-01-07T14:30:55.077Z,4.30
2024-01-07T14:33:23.430Z,4.20
2024-01-07T14:35:50.925Z,4.10
2024-01-07T14:38:19.260Z,4.10
2024-01-07T14:40:46.876Z,4.10
2024-01-07T14:43:14.501Z,4.10
2024-01-07T14:45:42.064Z,4.20
2024-01-07T14:48:09.837Z,4.20
2024-01-07T14:50:41.806Z,4.20
2024-01-07T14:53:05.575Z,4.10
2024-01-07T14:55:33.195Z,4.10
2024-01-07T14:58:00.785Z,4.10
2024-01-07T15:00:28.287Z,4.10
2024-01-07T15:02:55.868Z,4.10
2024-01-07T15:05:23.596Z,4.10
2024-01-07T15:07:51.051Z,4.10
2024-01-07T15:10:18.869Z,4.00
2024-01-07T15:12:51.591Z,4.00
2024-01-07T15:15:13.781Z,3.90
2024-01-07T15:17:41.495Z,3.90
2024-01-07T15:20:09.050Z,3.80
2024-01-07T15:22:36.574Z,3.80
2024-01-07T15:25:04.271Z,3.80
2024-01-07T15:27:31.817Z,3.80
2024-01-07T15:29:59.388Z,3.80
2024-01-07T15:32:27.790Z,4.00
2024-01-07T15:34:56.168Z,4.00
2024-01-07T15:37:24.318Z,4.00
2024-01-07T15:39:51.314Z,3.90
2024-01-07T15:42:18.844Z,3.80
2024-01-07T15:44:46.412Z,3.80
2024-01-07T15:47:13.993Z,3.70
2024-01-07T15:49:41.665Z,3.70
2024-01-07T15:52:09.284Z,3.70
2024-01-07T15:54:36.856Z,3.70
2024-01-07T15:57:04.454Z,3.70
2024-01-07T15:59:31.920Z,3.60
2024-01-07T16:01:59.574Z,3.60
2024-01-07T16:04:27.133Z,3.60
2024-01-07T16:06:54.704Z,3.50
2024-01-07T16:09:23.044Z,3.50
2024-01-07T16:11:50.635Z,3.40
2024-01-07T16:14:18.182Z,3.40
2024-01-07T16:16:45.777Z,3.40
2024-01-07T16:19:13.410Z,3.40
2024-01-07T16:21:41.403Z,3.40
2024-01-07T16:24:08.488Z,3.60
2024-01-07T16:26:36.056Z,3.80
2024-01-07T16:29:03.635Z,3.70
2024-01-07T16:31:31.306Z,3.50
2024-01-07T16:33:58.924Z,3.40
2024-01-07T16:36:26.349Z,3.30
2024-01-07T16:38:53.937Z,3.50
2024-01-07T16:41:22.304Z,3.30
2024-01-07T16:43:50.544Z,3.30
2024-01-07T16:46:18.326Z,3.20
2024-01-07T16:51:14.251Z,3.10
2024-01-07T16:53:41.820Z,3.10
2024-01-07T16:56:09.404Z,3.00
2024-01-07T16:58:36.924Z,3.00
2024-01-07T17:01:04.660Z,3.20
2024-01-07T17:03:32.182Z,3.10
2024-01-07T17:06:00.518Z,2.90
2024-01-07T17:08:28.081Z,2.90
2024-01-07T17:10:55.632Z,2.80
2024-01-07T17:13:23.183Z,2.80
2024-01-07T17:15:50.785Z,2.70
2024-01-07T17:18:18.440Z,2.60
2024-01-07T17:20:46.015Z,2.60
2024-01-07T17:23:14.329Z,2.50
2024-01-07T17:25:41.908Z,2.50
2024-01-07T17:28:09.427Z,2.40
2024-01-07T17:30:37.135Z,2.60
2024-01-07T17:33:04.779Z,2.90
2024-01-07T17:35:32.293Z,3.10
2024-01-07T17:37:59.868Z,3.20
2024-01-07T17:40:27.395Z,3.00
2024-01-07T17:42:54.985Z,2.80
2024-01-07T17:45:22.609Z,2.70
2024-01-07T17:47:50.303Z,2.60
2024-01-07T17:50:17.882Z,2.50
2024-01-07T17:52:45.434Z,2.50
2024-01-07T17:55:12.991Z,2.40
2024-01-07T17:57:40.581Z,2.40
2024-01-07T18:00:08.822Z,2.40
2024-01-07T18:02:36.612Z,2.60
2024-01-07T18:05:05.075Z,2.80
2024-01-07T18:07:32.562Z,2.80
2024-01-07T18:10:00.157Z,3.00
2024-01-07T18:12:27.712Z,3.10
2024-01-07T18:14:55.878Z,2.90
2024-01-07T18:17:23.079Z,2.70
2024-01-07T18:19:50.544Z,2.60
2024-01-07T18:22:18.168Z,2.50
2024-01-07T18:24:45.769Z,2.40
2024-01-07T18:27:13.306Z,2.30
2024-01-07T18:29:40.950Z,2.20
2024-01-07T18:32:08.478Z,2.10
2024-01-07T18:34:36.022Z,2.10
2024-01-07T18:37:03.637Z,2.40
2024-01-07T18:39:31.188Z,2.60
2024-01-07T18:41:58.762Z,2.40
2024-01-07T18:44:26.397Z,2.20
2024-01-07T18:46:53.931Z,2.10
2024-01-07T18:49:21.635Z,2.00
2024-01-07T18:51:49.060Z,2.20
2024-01-07T18:54:17.416Z,1.90
2024-01-07T18:56:45.013Z,1.90
2024-01-07T18:59:12.625Z,2.10
2024-01-07T19:01:40.159Z,2.30
2024-01-07T19:04:07.719Z,2.40
2024-01-07T19:06:35.368Z,2.20
2024-01-07T19:09:02.898Z,2.00
2024-01-07T19:11:30.485Z,1.80
2024-01-07T19:13:58.859Z,1.90
2024-01-07T19:16:26.408Z,1.80
2024-01-07T19:18:54.762Z,1.60
2024-01-07T19:21:22.371Z,1.60
2024-01-07T19:23:49.916Z,1.60
2024-01-07T19:26:17.529Z,1.50
2024-01-07T19:28:45.831Z,1.40
2024-01-07T19:31:13.409Z,1.30
2024-01-07T19:33:41.000Z,1.30
2024-01-07T19:36:08.481Z,1.20
2024-01-07T19:38:36.065Z,1.20
2024-01-07T19:41:03.744Z,1.20
2024-01-07T19:43:31.249Z,1.40
2024-01-07T19:46:02.088Z,1.40
2024-01-07T19:48:29.604Z,1.30
2024-01-07T19:50:57.134Z,1.20
2024-01-07T19:53:30.406Z,1.50
2024-01-07T19:55:53.139Z,1.20
2024-01-07T19:58:20.668Z,1.20
2024-01-07T20:00:48.300Z,1.10
2024-01-07T20:03:15.845Z,1.10
2024-01-07T20:05:43.478Z,1.00
2024-01-07T20:08:11.037Z,1.00
2024-01-07T20:10:39.990Z,0.90
2024-01-07T20:13:06.157Z,0.90
2024-01-07T20:15:33.792Z,1.10
2024-01-07T20:18:01.405Z,1.10
2024-01-07T20:20:29.027Z,1.00
2024-01-07T20:22:56.452Z,1.00
2024-01-07T20:25:24.015Z,0.90
2024-01-07T20:27:51.586Z,0.90
2024-01-07T20:30:19.971Z,1.00
2024-01-07T20:32:47.531Z,1.00
2024-01-07T20:35:15.111Z,1.00
2024-01-07T20:37:43.564Z,1.10
2024-01-07T20:40:10.998Z,1.10
2024-01-07T20:42:41.747Z,1.10
2024-01-07T20:45:06.341Z,1.00
2024-01-07T20:47:34.013Z,0.90
2024-01-07T20:50:02.365Z,1.50
2024-01-07T20:52:29.869Z,1.50
2024-01-07T20:54:58.187Z,1.50
2024-01-07T20:57:25.768Z,1.50
2024-01-07T20:59:53.347Z,1.30
2024-01-07T21:02:21.051Z,1.20
2024-01-07T21:04:49.485Z,0.90
2024-01-07T21:07:16.801Z,0.90
2024-01-07T21:09:44.375Z,0.90
2024-01-07T21:12:11.977Z,0.80
2024-01-07T21:14:40.326Z,0.80
2024-01-07T21:17:07.978Z,0.80
2024-01-07T21:19:35.550Z,0.80
2024-01-07T21:22:03.123Z,0.80
2024-01-07T21:24:30.683Z,0.80
2024-01-07T21:26:59.046Z,0.80
2024-01-07T21:29:26.775Z,0.80
2024-01-07T21:31:54.212Z,0.80
2024-01-07T21:34:21.972Z,1.10
2024-01-07T21:36:49.374Z,1.00
2024-01-07T21:39:16.920Z,0.90
2024-01-07T21:41:44.598Z,0.90
2024-01-07T21:44:12.160Z,0.80
2024-01-07T21:46:48.682Z,0.80
2024-01-07T21:49:16.347Z,0.70
2024-01-07T21:51:43.778Z,1.00
2024-01-07T21:54:11.403Z,1.20
2024-01-07T21:56:39.095Z,1.10
2024-01-07T21:59:06.580Z,0.90
2024-01-07T22:01:34.114Z,0.80
2024-01-07T22:04:01.668Z,0.70
2024-01-07T22:06:29.291Z,0.60
2024-01-07T22:08:56.849Z,0.60
2024-01-07T22:11:24.423Z,0.50
2024-01-07T22:13:52.063Z,0.40
2024-01-07T22:16:19.544Z,0.40
2024-01-07T22:18:47.292Z,0.40
2024-01-07T22:21:17.646Z,0.30
2024-01-07T22:23:45.223Z,0.30
2024-01-07T22:26:12.860Z,0.30
2024-01-07T22:28:44.139Z,0.50
2024-01-07T22:31:11.637Z,0.50
2024-01-07T22:33:39.327Z,0.40
2024-01-07T22:36:06.789Z,0.40
2024-01-07T22:38:34.525Z,0.30
2024-01-07T22:41:01.955Z,0.30
2024-01-07T22:43:29.523Z,0.20
2024-01-07T22:45:57.113Z,0.20
2024-01-07T22:48:24.770Z,0.20
2024-01-07T22:50:52.342Z,0.20
2024-01-07T22:53:19.938Z,0.20
2024-01-07T22:55:47.483Z,0.20
2024-01-07T22:58:15.013Z,0.20
2024-01-07T23:00:42.656Z,0.10
2024-01-07T23:03:10.251Z,0.10
2024-01-07T23:05:39.813Z,0.10
2024-01-07T23:08:05.428Z,0.10
2024-01-07T23:10:32.941Z,0.10
2024-01-07T23:13:00.505Z,0.10
2024-01-07T23:15:28.090Z,0.10
2024-01-07T23:17:55.752Z,0.10
2024-01-07T23:20:24.072Z,0.10
2024-01-07T23:22:51.633Z,0.10
2024-01-07T23:25:19.946Z,0.10
2024-01-07T23:27:47.501Z,0.00
2024-01-07T23:30:15.218Z,0.10
2024-01-07T23:32:42.693Z,0.10
2024-01-07T23:35:10.332Z,0.10
2024-01-07T23:37:37.851Z,0.10
2024-01-07T23:40:05.487Z,0.40
2024-01-07T23:42:33.056Z,0.80
2024-01-07T23:45:00.657Z,0.70
2024-01-07T23:47:28.379Z,0.60
2024-01-07T23:49:55.910Z,0.50
2024-01-07T23:52:23.477Z,0.40
2024-01-07T23:54:51.005Z,0.40
2024-01-07T23:57:18.566Z,0.30
2024-01-07T23:59:46.163Z,0.30
